Time;durP1;ratioP1;P1;durP2;ratioP2;P2;SDS_P1;SDS_P2;PMS_P1;PMS_P2;Temp;Humidity;BMP_temperature;BMP_pressure;BME280_temperature;BME280_humidity;BME280_pressure;Samples;Min_cycle;Max_cycle;Signal;HPM_P1;HPM_P2
2023/10/22 00:00:43;;;;;;;1.00;0.90;;;11.60;99.90;;;;;;4407782;32;20234;-60
2023/10/22 00:03:09;;;;;;;0.70;0.70;;;11.60;99.90;;;;;;4407929;32;20069;-60
2023/10/22 00:05:34;;;;;;;0.90;0.80;;;11.60;99.90;;;;;;4404759;32;20414;-60
2023/10/22 00:08:00;;;;;;;0.50;0.50;;;11.60;99.90;;;;;;4403421;32;20098;-60
2023/10/22 00:10:26;;;;;;;0.77;0.77;;;11.50;99.90;;;;;;4405991;32;20509;-60
2023/10/22 00:12:51;;;;;;;1.12;1.02;;;11.50;99.90;;;;;;4409238;32;20080;-60
2023/10/22 00:15:17;;;;;;;1.20;0.85;;;11.50;99.90;;;;;;4406224;32;20069;-61
2023/10/22 00:17:42;;;;;;;1.05;0.95;;;11.50;99.90;;;;;;4397914;32;20575;-61
2023/10/22 00:20:09;;;;;;;0.70;0.70;;;11.50;99.90;;;;;;4402771;32;20086;-61
2023/10/22 00:22:34;;;;;;;11.57;1.15;;;11.50;99.90;;;;;;4405317;32;20160;-59
2023/10/22 00:25:00;;;;;;;0.80;0.80;;;11.40;99.90;;;;;;4405759;32;20148;-61
2023/10/22 00:27:26;;;;;;;1.30;0.85;;;11.40;99.90;;;;;;4401300;32;20087;-61
2023/10/22 00:29:51;;;;;;;0.90;0.60;;;11.50;99.90;;;;;;4406925;32;20074;-60
2023/10/22 00:32:17;;;;;;;1.40;0.90;;;11.70;99.90;;;;;;4405584;32;20081;-61
2023/10/22 00:34:43;;;;;;;0.70;0.68;;;11.70;99.90;;;;;;4404943;32;20112;-60
2023/10/22 00:37:09;;;;;;;0.50;0.50;;;11.70;99.90;;;;;;4382737;32;20094;-61
2023/10/22 00:39:35;;;;;;;0.90;0.90;;;11.70;99.90;;;;;;4401722;32;20086;-61
2023/10/22 00:42:01;;;;;;;1.17;0.80;;;11.70;99.90;;;;;;4403531;32;20124;-61
2023/10/22 00:44:27;;;;;;;12.45;1.20;;;11.80;99.90;;;;;;4403050;32;20117;-61
2023/10/22 00:46:54;;;;;;;1.87;0.90;;;11.90;99.90;;;;;;4398429;32;20511;-61
2023/10/22 00:49:20;;;;;;;0.50;0.50;;;11.90;99.90;;;;;;4405110;32;20070;-61
2023/10/22 00:51:48;;;;;;;0.75;0.75;;;11.90;99.90;;;;;;4409044;32;20430;-61
2023/10/22 00:54:16;;;;;;;0.65;0.65;;;11.90;99.90;;;;;;4408473;32;20098;-61
2023/10/22 00:56:42;;;;;;;39.55;2.35;;;11.90;99.90;;;;;;4390088;32;21193;-61
2023/10/22 00:59:10;;;;;;;0.98;0.90;;;11.90;99.90;;;;;;4406630;32;20085;-62
2023/10/22 01:01:35;;;;;;;4.68;2.25;;;11.90;99.90;;;;;;4405388;32;20097;-62
2023/10/22 01:04:01;;;;;;;2.92;1.23;;;11.90;99.90;;;;;;4398915;32;20550;-62
2023/10/22 01:06:26;;;;;;;2.08;0.70;;;11.90;99.90;;;;;;4405228;32;20102;-62
2023/10/22 01:08:55;;;;;;;1.60;0.93;;;11.90;99.90;;;;;;4403947;32;20132;-62
2023/10/22 01:11:20;;;;;;;0.60;0.60;;;12.00;99.90;;;;;;4407396;32;20073;-59
2023/10/22 01:13:45;;;;;;;0.85;0.85;;;12.00;99.90;;;;;;4405728;32;20510;-62
2023/10/22 01:16:11;;;;;;;0.60;0.60;;;12.00;99.90;;;;;;4405356;32;20070;-62
2023/10/22 01:18:37;;;;;;;0.73;0.50;;;12.00;99.90;;;;;;4402031;32;20228;-62
2023/10/22 01:21:04;;;;;;;0.60;0.60;;;11.90;99.90;;;;;;4409592;32;20093;-61
2023/10/22 01:23:30;;;;;;;0.40;0.40;;;11.90;99.90;;;;;;4409609;32;20085;-63
2023/10/22 01:25:55;;;;;;;0.35;0.35;;;12.00;99.90;;;;;;4407081;32;20079;-62
2023/10/22 01:28:21;;;;;;;1.15;0.98;;;12.10;99.90;;;;;;4407078;32;20066;-63
2023/10/22 01:30:46;;;;;;;0.62;0.62;;;12.00;99.90;;;;;;4402291;32;20244;-61
2023/10/22 01:33:12;;;;;;;0.90;0.82;;;12.00;99.90;;;;;;4405088;32;20082;-62
2023/10/22 01:35:37;;;;;;;0.65;0.65;;;12.00;99.90;;;;;;4404886;32;20102;-62
2023/10/22 01:38:03;;;;;;;0.50;0.50;;;12.00;99.90;;;;;;4397664;32;20522;-62
2023/10/22 01:40:29;;;;;;;0.40;0.40;;;11.90;99.90;;;;;;4411061;32;20537;-61
2023/10/22 01:42:54;;;;;;;1.77;0.60;;;11.80;99.90;;;;;;4406914;32;20160;-63
2023/10/22 01:45:20;;;;;;;0.50;0.50;;;11.80;99.90;;;;;;4406126;32;20124;-63
2023/10/22 01:47:46;;;;;;;0.68;0.68;;;11.90;99.90;;;;;;4402098;32;20446;-62
2023/10/22 01:50:12;;;;;;;0.50;0.50;;;11.80;99.90;;;;;;4405787;32;20114;-61
2023/10/22 01:52:37;;;;;;;0.77;0.77;;;11.70;99.90;;;;;;4408604;32;21361;-63
2023/10/22 01:55:04;;;;;;;0.90;0.75;;;11.70;99.90;;;;;;4408294;32;20081;-61
2023/10/22 01:57:29;;;;;;;0.70;0.50;;;11.70;99.90;;;;;;4399479;32;20066;-62
2023/10/22 01:59:54;;;;;;;3.20;1.27;;;11.80;99.90;;;;;;4405919;32;20077;-62
2023/10/22 02:02:20;;;;;;;0.62;0.62;;;11.80;99.90;;;;;;4407664;32;20113;-62
2023/10/22 02:04:45;;;;;;;0.32;0.32;;;11.70;99.90;;;;;;4409501;32;20153;-62
2023/10/22 02:07:11;;;;;;;0.40;0.40;;;11.70;99.90;;;;;;4403835;32;20137;-61
2023/10/22 02:09:37;;;;;;;0.55;0.50;;;11.70;99.90;;;;;;4409357;32;20078;-60
2023/10/22 02:12:02;;;;;;;0.40;0.40;;;11.70;99.90;;;;;;4407889;32;20066;-61
2023/10/22 02:14:28;;;;;;;10.90;0.55;;;11.70;99.90;;;;;;4407371;32;20089;-61
2023/10/22 02:16:53;;;;;;;0.40;0.40;;;11.70;99.90;;;;;;4400915;32;20428;-62
2023/10/22 02:19:19;;;;;;;1.15;1.00;;;11.70;99.90;;;;;;4405512;32;20097;-61
2023/10/22 02:21:45;;;;;;;0.80;0.80;;;11.70;99.90;;;;;;4405407;32;20057;-63
2023/10/22 02:24:10;;;;;;;0.90;0.85;;;11.80;99.90;;;;;;4409525;32;20164;-62
2023/10/22 02:26:36;;;;;;;1.15;0.88;;;11.80;99.90;;;;;;4402940;32;20089;-61
2023/10/22 02:29:01;;;;;;;0.82;0.82;;;11.80;99.90;;;;;;4392566;32;20191;-62
2023/10/22 02:31:27;;;;;;;0.50;0.50;;;11.80;99.90;;;;;;4405427;32;20069;-62
2023/10/22 02:34:06;;;;;;;0.73;0.73;;;11.70;99.90;;;;;;4406017;32;20087;-61
2023/10/22 02:36:32;;;;;;;0.70;0.70;;;11.70;99.90;;;;;;4389185;32;20085;-61
2023/10/22 02:38:57;;;;;;;0.70;0.70;;;11.90;99.90;;;;;;4400006;32;20093;-62
2023/10/22 02:41:23;;;;;;;0.60;0.60;;;11.90;99.90;;;;;;4404873;32;20084;-62
2023/10/22 02:43:48;;;;;;;0.47;0.47;;;12.00;99.90;;;;;;4407788;32;20093;-61
2023/10/22 02:46:15;;;;;;;0.37;0.37;;;11.90;99.90;;;;;;4406529;32;20057;-60
2023/10/22 02:48:41;;;;;;;0.55;0.55;;;11.80;99.90;;;;;;4404014;32;20089;-62
2023/10/22 02:51:06;;;;;;;0.40;0.40;;;11.80;99.90;;;;;;4409642;32;20115;-61
2023/10/22 02:53:32;;;;;;;1.70;0.60;;;11.80;99.90;;;;;;4407641;32;20447;-62
2023/10/22 02:56:00;;;;;;;1.25;1.12;;;11.90;99.90;;;;;;4407543;32;20497;-60
2023/10/22 02:58:26;;;;;;;0.50;0.50;;;11.90;99.90;;;;;;4399529;32;20077;-63
2023/10/22 03:00:51;;;;;;;0.43;0.43;;;11.90;99.90;;;;;;4409193;32;20065;-62
2023/10/22 03:03:18;;;;;;;0.45;0.45;;;11.90;99.90;;;;;;4409036;32;20093;-62
2023/10/22 03:05:43;;;;;;;0.40;0.40;;;11.90;99.90;;;;;;4405894;32;20945;-62
2023/10/22 03:08:08;;;;;;;0.55;0.50;;;11.90;99.90;;;;;;4404482;32;20078;-61
2023/10/22 03:10:37;;;;;;;0.40;0.40;;;11.90;99.90;;;;;;4410140;32;20081;-62
2023/10/22 03:13:02;;;;;;;0.45;0.45;;;11.90;99.90;;;;;;4391906;32;20110;-63
2023/10/22 03:15:27;;;;;;;0.50;0.50;;;11.90;99.90;;;;;;4406960;32;20132;-62
2023/10/22 03:17:54;;;;;;;0.50;0.50;;;11.90;99.90;;;;;;4399017;32;20526;-62
2023/10/22 03:20:19;;;;;;;0.50;0.50;;;11.90;99.90;;;;;;4406737;32;20134;-61
2023/10/22 03:22:45;;;;;;;0.37;0.37;;;11.90;99.90;;;;;;4406263;32;20498;-61
2023/10/22 03:25:12;;;;;;;0.60;0.60;;;11.90;99.90;;;;;;4409314;32;20069;-62
2023/10/22 03:27:37;;;;;;;0.32;0.32;;;11.90;99.90;;;;;;4405912;32;20521;-62
2023/10/22 03:30:04;;;;;;;0.50;0.50;;;11.90;99.90;;;;;;4407962;32;20095;-62
2023/10/22 03:32:30;;;;;;;0.60;0.60;;;11.90;99.90;;;;;;4404988;32;20097;-62
2023/10/22 03:34:55;;;;;;;0.50;0.50;;;11.90;99.90;;;;;;4404401;32;20075;-60
2023/10/22 03:37:21;;;;;;;0.60;0.60;;;11.90;99.90;;;;;;4398397;32;20101;-62
2023/10/22 03:39:46;;;;;;;2.40;0.88;;;11.90;99.90;;;;;;4406279;32;20065;-61
2023/10/22 03:42:12;;;;;;;0.73;0.73;;;12.00;99.90;;;;;;4407492;32;20123;-62
2023/10/22 03:44:37;;;;;;;0.50;0.50;;;12.00;99.90;;;;;;4409068;32;20126;-62
2023/10/22 03:47:03;;;;;;;0.50;0.50;;;12.00;99.90;;;;;;4405207;32;20404;-60
2023/10/22 03:49:28;;;;;;;0.50;0.50;;;12.00;99.90;;;;;;4407231;32;20394;-62
2023/10/22 03:51:54;;;;;;;1.37;0.95;;;12.00;99.90;;;;;;4409576;32;20073;-61
2023/10/22 03:54:19;;;;;;;0.50;0.50;;;12.00;99.90;;;;;;4408126;32;20078;-62
2023/10/22 03:56:45;;;;;;;1.08;0.73;;;12.00;99.90;;;;;;4402154;32;20097;-62
2023/10/22 03:59:10;;;;;;;0.50;0.50;;;11.90;99.90;;;;;;4404410;32;20106;-62
2023/10/22 04:01:36;;;;;;;1.85;0.90;;;11.90;99.90;;;;;;4403612;32;20152;-62
2023/10/22 04:04:01;;;;;;;0.50;0.50;;;11.80;99.90;;;;;;4407721;32;20106;-62
2023/10/22 04:06:27;;;;;;;0.40;0.40;;;11.80;99.90;;;;;;4403421;32;20086;-62
2023/10/22 04:08:52;;;;;;;0.43;0.43;;;11.80;99.90;;;;;;4402692;32;20085;-61
2023/10/22 04:11:20;;;;;;;0.68;0.68;;;11.70;99.90;;;;;;4405934;32;20089;-62
2023/10/22 04:13:45;;;;;;;0.65;0.62;;;11.70;99.90;;;;;;4385275;32;20158;-62
2023/10/22 04:16:15;;;;;;;1.77;0.85;;;11.70;99.90;;;;;;4404320;32;20559;-60
2023/10/22 04:18:41;;;;;;;0.77;0.77;;;11.70;99.90;;;;;;4398496;32;20094;-62
2023/10/22 04:21:15;;;;;;;3.70;0.85;;;11.70;99.90;;;;;;4404128;32;20418;-60
2023/10/22 04:23:40;;;;;;;0.40;0.40;;;11.70;99.90;;;;;;4408660;32;20492;-62
2023/10/22 04:26:14;;;;;;;0.37;0.37;;;11.70;99.90;;;;;;4408579;32;20054;-62
2023/10/22 04:28:42;;;;;;;0.32;0.32;;;11.70;99.90;;;;;;4404488;32;20085;-63
2023/10/22 04:31:09;;;;;;;1.25;0.98;;;11.70;99.90;;;;;;4410245;32;20160;-61
2023/10/22 04:33:35;;;;;;;0.40;0.40;;;11.70;99.90;;;;;;4407342;32;20546;-62
2023/10/22 04:36:01;;;;;;;0.40;0.40;;;11.80;99.90;;;;;;4391598;32;20090;-62
2023/10/22 04:38:27;;;;;;;0.55;0.55;;;11.70;99.90;;;;;;4401134;32;20073;-62
2023/10/22 04:40:52;;;;;;;0.30;0.30;;;11.80;99.90;;;;;;4411277;32;20485;-63
2023/10/22 04:43:18;;;;;;;0.35;0.35;;;11.80;99.90;;;;;;4410171;32;20101;-62
2023/10/22 04:45:47;;;;;;;0.37;0.37;;;11.70;99.90;;;;;;4409149;32;20525;-62
2023/10/22 04:48:13;;;;;;;0.40;0.40;;;11.70;99.90;;;;;;4406844;32;20530;-62
2023/10/22 04:50:38;;;;;;;0.35;0.35;;;11.80;99.90;;;;;;4408229;32;20092;-62
2023/10/22 04:53:04;;;;;;;0.20;0.20;;;11.80;99.90;;;;;;4410950;32;20403;-62
2023/10/22 04:55:29;;;;;;;0.40;0.40;;;11.80;99.90;;;;;;4409127;32;20112;-62
2023/10/22 04:57:55;;;;;;;0.40;0.40;;;11.90;99.90;;;;;;4401321;32;20442;-63
2023/10/22 05:00:21;;;;;;;0.50;0.50;;;11.90;99.90;;;;;;4406626;32;20426;-62
2023/10/22 05:02:46;;;;;;;0.30;0.30;;;11.90;99.90;;;;;;4410388;32;20086;-61
2023/10/22 05:05:12;;;;;;;0.40;0.40;;;11.80;99.90;;;;;;4407999;32;20085;-63
2023/10/22 05:07:37;;;;;;;0.55;0.55;;;11.90;99.90;;;;;;4406535;32;20065;-61
2023/10/22 05:10:04;;;;;;;0.37;0.37;;;11.90;99.90;;;;;;4408175;32;20089;-62
2023/10/22 05:12:29;;;;;;;0.45;0.45;;;11.90;99.90;;;;;;4407473;32;20074;-63
2023/10/22 05:14:54;;;;;;;0.30;0.30;;;11.90;99.90;;;;;;4410573;32;20093;-62
2023/10/22 05:17:20;;;;;;;3.10;0.50;;;11.80;99.90;;;;;;4402210;32;20081;-61
2023/10/22 05:19:48;;;;;;;0.40;0.40;;;11.80;99.90;;;;;;4407907;32;20081;-63
2023/10/22 05:22:13;;;;;;;0.32;0.32;;;11.80;99.90;;;;;;4410973;32;20075;-62
2023/10/22 05:24:39;;;;;;;0.40;0.40;;;11.80;99.90;;;;;;4406123;32;20116;-62
2023/10/22 05:27:04;;;;;;;0.40;0.40;;;11.80;99.90;;;;;;4405843;32;20475;-63
2023/10/22 05:29:31;;;;;;;0.55;0.55;;;11.80;99.90;;;;;;4406761;32;20132;-62
2023/10/22 05:31:57;;;;;;;0.32;0.32;;;11.80;99.90;;;;;;4407090;32;20486;-62
2023/10/22 05:34:22;;;;;;;0.47;0.47;;;11.70;99.90;;;;;;4403903;32;20059;-62
2023/10/22 05:36:48;;;;;;;0.50;0.50;;;11.80;99.90;;;;;;4400964;32;20513;-62
2023/10/22 05:39:13;;;;;;;0.40;0.40;;;11.70;99.90;;;;;;4405153;32;20093;-62
2023/10/22 05:41:39;;;;;;;0.50;0.50;;;11.70;99.90;;;;;;4408479;32;20077;-62
2023/10/22 05:44:04;;;;;;;0.50;0.50;;;11.70;99.90;;;;;;4410085;32;20120;-62
2023/10/22 05:46:32;;;;;;;3.42;1.58;;;11.70;99.90;;;;;;4406921;32;21203;-63
2023/10/22 05:48:58;;;;;;;0.40;0.40;;;11.70;99.90;;;;;;4408727;32;20533;-62
2023/10/22 05:51:24;;;;;;;0.62;0.45;;;11.70;99.90;;;;;;4407133;32;20086;-61
2023/10/22 05:53:50;;;;;;;0.50;0.50;;;11.70;99.90;;;;;;4407752;32;20075;-60
2023/10/22 05:56:15;;;;;;;1.23;0.65;;;11.60;99.90;;;;;;4389253;32;20070;-61
2023/10/22 05:58:41;;;;;;;0.90;0.90;;;11.60;99.90;;;;;;4398770;32;20100;-62
2023/10/22 06:01:08;;;;;;;3.50;1.65;;;11.60;99.90;;;;;;4406681;32;20091;-62
2023/10/22 06:03:34;;;;;;;16.00;0.70;;;11.60;99.90;;;;;;4409458;32;20074;-61
2023/10/22 06:05:59;;;;;;;0.43;0.43;;;11.60;99.90;;;;;;4404908;32;20569;-61
2023/10/22 06:08:25;;;;;;;0.68;0.68;;;11.60;99.90;;;;;;4402709;32;20292;-61
2023/10/22 06:10:50;;;;;;;0.47;0.47;;;11.70;99.90;;;;;;4405718;32;20070;-60
2023/10/22 06:13:15;;;;;;;1.80;0.65;;;11.70;99.90;;;;;;4409709;32;20094;-61
2023/10/22 06:15:44;;;;;;;1.60;1.23;;;11.70;99.90;;;;;;4409318;32;20062;-62
2023/10/22 06:18:10;;;;;;;0.75;0.62;;;11.70;99.90;;;;;;4384713;32;20140;-61
2023/10/22 06:20:36;;;;;;;0.30;0.30;;;11.70;99.90;;;;;;4409396;32;20687;-61
2023/10/22 06:23:03;;;;;;;0.40;0.40;;;11.60;99.90;;;;;;4396757;32;20117;-61
2023/10/22 06:25:31;;;;;;;0.50;0.50;;;11.60;99.90;;;;;;4406458;32;20069;-59
2023/10/22 06:27:57;;;;;;;0.40;0.40;;;11.60;99.90;;;;;;4403306;32;20100;-61
2023/10/22 06:30:24;;;;;;;1.85;1.37;;;11.60;99.90;;;;;;4408521;32;20098;-61
2023/10/22 06:32:51;;;;;;;1.35;1.15;;;11.60;99.90;;;;;;4408952;32;20082;-62
2023/10/22 06:35:17;;;;;;;0.82;0.82;;;11.60;99.90;;;;;;4405591;32;20085;-61
2023/10/22 06:37:42;;;;;;;0.50;0.50;;;11.60;99.90;;;;;;4395311;32;20549;-61
2023/10/22 06:40:08;;;;;;;0.30;0.30;;;11.60;99.90;;;;;;4406223;32;20122;-61
2023/10/22 06:42:34;;;;;;;0.43;0.43;;;11.60;99.90;;;;;;4407721;32;20098;-61
2023/10/22 06:44:59;;;;;;;0.50;0.50;;;11.60;99.90;;;;;;4406989;32;20089;-60
2023/10/22 06:47:25;;;;;;;1.15;0.47;;;11.60;99.90;;;;;;4400012;32;20124;-62
2023/10/22 06:49:51;;;;;;;1.55;1.15;;;11.60;99.90;;;;;;4406989;32;20070;-61
2023/10/22 06:52:17;;;;;;;0.47;0.47;;;11.50;99.90;;;;;;4405820;32;20062;-61
2023/10/22 06:54:42;;;;;;;0.45;0.45;;;11.60;99.90;;;;;;4407966;32;20092;-61
2023/10/22 06:57:08;;;;;;;0.43;0.43;;;11.50;99.90;;;;;;4397462;32;20135;-61
2023/10/22 06:59:33;;;;;;;0.30;0.30;;;11.60;99.90;;;;;;4405262;32;20078;-61
2023/10/22 07:01:59;;;;;;;0.65;0.50;;;11.50;99.90;;;;;;4409293;32;20435;-60
2023/10/22 07:04:24;;;;;;;0.35;0.35;;;11.50;99.90;;;;;;4405888;32;20074;-61
2023/10/22 07:06:50;;;;;;;0.40;0.40;;;11.50;99.90;;;;;;4403621;32;20100;-62
2023/10/22 07:09:15;;;;;;;0.60;0.60;;;11.60;99.90;;;;;;4406619;32;20120;-61
2023/10/22 07:11:41;;;;;;;0.50;0.50;;;11.60;99.90;;;;;;4406056;32;20089;-61
2023/10/22 07:14:06;;;;;;;0.40;0.40;;;11.60;99.90;;;;;;4410416;32;20093;-62
2023/10/22 07:16:32;;;;;;;0.40;0.40;;;11.50;99.90;;;;;;4400458;32;20106;-62
2023/10/22 07:18:57;;;;;;;0.40;0.40;;;11.50;99.90;;;;;;4403970;32;20517;-62
2023/10/22 07:21:23;;;;;;;0.50;0.50;;;11.50;99.90;;;;;;4408511;32;20065;-62
2023/10/22 07:23:49;;;;;;;2.37;1.30;;;11.50;99.90;;;;;;4409725;32;20066;-62
2023/10/22 07:26:14;;;;;;;0.60;0.60;;;11.60;99.90;;;;;;4404979;32;20066;-61
2023/10/22 07:28:44;;;;;;;0.40;0.40;;;11.60;99.90;;;;;;4404647;32;20058;-61
2023/10/22 07:31:09;;;;;;;0.43;0.40;;;11.60;99.90;;;;;;4407364;32;20066;-62
2023/10/22 07:33:35;;;;;;;1.42;0.68;;;11.60;99.90;;;;;;4409147;32;20097;-61
2023/10/22 07:36:01;;;;;;;0.40;0.40;;;11.60;99.90;;;;;;4399955;32;20113;-62
2023/10/22 07:38:29;;;;;;;0.30;0.30;;;11.70;99.90;;;;;;4397743;32;20082;-62
2023/10/22 07:40:56;;;;;;;0.57;0.57;;;11.70;99.90;;;;;;4406239;32;20553;-63
2023/10/22 07:43:22;;;;;;;0.43;0.43;;;11.70;99.90;;;;;;4408675;32;20116;-61
2023/10/22 07:45:47;;;;;;;0.65;0.65;;;11.80;99.90;;;;;;4405967;32;20116;-62
2023/10/22 07:48:13;;;;;;;0.50;0.50;;;11.90;99.90;;;;;;4403731;32;20474;-62
2023/10/22 07:50:38;;;;;;;0.50;0.50;;;12.00;99.90;;;;;;4402868;32;20094;-62
2023/10/22 07:53:04;;;;;;;0.40;0.40;;;12.00;99.90;;;;;;4407090;32;20145;-61
2023/10/22 07:55:29;;;;;;;0.32;0.32;;;12.10;99.90;;;;;;4409803;32;20065;-62
2023/10/22 07:57:55;;;;;;;0.40;0.40;;;12.20;99.90;;;;;;4395601;32;20699;-62
2023/10/22 08:00:20;;;;;;;0.40;0.40;;;12.30;99.90;;;;;;4406494;32;20079;-62
2023/10/22 08:02:46;;;;;;;0.90;0.88;;;12.30;99.90;;;;;;4409050;32;20088;-63
2023/10/22 08:05:11;;;;;;;0.30;0.30;;;12.30;99.90;;;;;;4406673;32;20127;-63
2023/10/22 08:07:36;;;;;;;0.30;0.30;;;12.40;99.90;;;;;;4402959;32;20065;-61
2023/10/22 08:10:02;;;;;;;0.30;0.30;;;12.50;99.90;;;;;;4406134;32;20101;-62
2023/10/22 08:12:28;;;;;;;0.40;0.40;;;12.50;99.90;;;;;;4406663;32;20139;-63
2023/10/22 08:14:53;;;;;;;0.68;0.68;;;12.50;99.90;;;;;;4407949;32;20070;-62
2023/10/22 08:17:19;;;;;;;1.48;1.37;;;12.60;99.90;;;;;;4401665;32;20074;-62
2023/10/22 08:19:44;;;;;;;0.40;0.40;;;12.70;99.90;;;;;;4399744;32;20093;-63
2023/10/22 08:22:09;;;;;;;0.50;0.50;;;12.80;99.90;;;;;;4408118;32;20066;-62
2023/10/22 08:24:35;;;;;;;1.15;0.60;;;12.80;99.90;;;;;;4405082;32;21243;-62
2023/10/22 08:27:01;;;;;;;0.60;0.60;;;12.80;99.90;;;;;;4402883;32;20663;-61
2023/10/22 08:29:27;;;;;;;0.52;0.52;;;12.90;99.90;;;;;;4402046;32;20078;-61
2023/10/22 08:31:53;;;;;;;0.40;0.40;;;12.90;99.90;;;;;;4405287;32;20533;-61
2023/10/22 08:34:19;;;;;;;0.30;0.30;;;12.90;99.90;;;;;;4397579;32;20076;-61
2023/10/22 08:36:44;;;;;;;0.35;0.35;;;12.90;99.90;;;;;;4400406;32;20467;-62
2023/10/22 08:39:10;;;;;;;0.30;0.30;;;13.00;99.90;;;;;;4402705;32;20065;-60
2023/10/22 08:41:44;;;;;;;0.30;0.30;;;13.00;99.90;;;;;;4406167;32;20085;-61
2023/10/22 08:44:09;;;;;;;0.40;0.40;;;13.10;99.90;;;;;;4394688;32;20132;-61
2023/10/22 08:46:35;;;;;;;0.50;0.50;;;13.10;99.90;;;;;;4402466;32;20220;-60
2023/10/22 08:49:06;;;;;;;0.40;0.40;;;13.10;99.90;;;;;;4390294;32;20460;-61
2023/10/22 08:51:31;;;;;;;0.37;0.37;;;13.20;99.90;;;;;;4407752;32;20078;-61
2023/10/22 08:53:57;;;;;;;1.65;0.80;;;13.20;99.90;;;;;;4404380;32;20081;-61
2023/10/22 08:56:22;;;;;;;0.32;0.32;;;13.20;99.90;;;;;;4404522;32;20081;-61
2023/10/22 08:58:49;;;;;;;0.68;0.68;;;13.20;99.90;;;;;;4401946;32;20082;-61
2023/10/22 09:01:16;;;;;;;0.50;0.50;;;13.20;99.90;;;;;;4407590;32;20078;-61
2023/10/22 09:03:42;;;;;;;0.70;0.60;;;13.20;99.90;;;;;;4405640;32;20096;-62
2023/10/22 09:06:07;;;;;;;6.12;0.77;;;13.30;99.90;;;;;;4406875;32;20095;-61
2023/10/22 09:08:42;;;;;;;0.20;0.20;;;13.30;99.90;;;;;;4402697;32;20557;-60
2023/10/22 09:11:16;;;;;;;0.30;0.30;;;13.20;99.90;;;;;;4408244;32;20514;-61
2023/10/22 09:13:43;;;;;;;0.35;0.35;;;13.30;99.90;;;;;;4406921;32;20120;-62
2023/10/22 09:16:08;;;;;;;4.28;1.52;;;13.30;99.90;;;;;;4394864;32;20053;-60
2023/10/22 09:18:43;;;;;;;0.45;0.45;;;13.30;99.90;;;;;;4403422;32;20153;-61
2023/10/22 09:21:08;;;;;;;0.50;0.50;;;13.30;99.90;;;;;;4411387;32;20444;-61
2023/10/22 09:23:34;;;;;;;0.40;0.40;;;13.40;99.90;;;;;;4410916;32;20085;-60
2023/10/22 09:25:59;;;;;;;0.40;0.40;;;13.40;99.90;;;;;;4409600;32;20132;-61
2023/10/22 09:28:27;;;;;;;0.40;0.40;;;13.50;99.90;;;;;;4407467;32;20548;-61
2023/10/22 09:31:01;;;;;;;0.50;0.50;;;13.50;99.90;;;;;;4405370;32;20066;-61
2023/10/22 09:33:33;;;;;;;0.40;0.40;;;13.50;99.90;;;;;;4394971;32;20505;-62
2023/10/22 09:36:08;;;;;;;2.72;1.00;;;13.50;99.90;;;;;;4404260;32;20074;-61
2023/10/22 09:38:49;;;;;;;0.40;0.40;;;13.50;99.90;;;;;;4399496;32;20061;-62
2023/10/22 09:41:30;;;;;;;0.37;0.37;;;13.60;99.90;;;;;;4405382;32;20192;-63
2023/10/22 09:43:57;;;;;;;;;;;13.70;99.90;;;;;;4409598;32;20065;-62
2023/10/22 09:46:28;;;;;;;0.40;0.40;;;13.80;99.90;;;;;;4400602;32;20480;-63
2023/10/22 09:48:56;;;;;;;;;;;13.80;99.90;;;;;;4406297;32;20185;-62
2023/10/22 09:51:22;;;;;;;0.30;0.30;;;13.70;99.90;;;;;;4409629;32;20360;-62
2023/10/22 09:53:53;;;;;;;0.40;0.40;;;13.70;99.90;;;;;;4409625;32;20098;-61
2023/10/22 09:56:21;;;;;;;0.40;0.40;;;13.80;99.90;;;;;;4390837;32;20097;-61
2023/10/22 09:58:49;;;;;;;1.75;1.10;;;13.90;99.90;;;;;;4402124;32;20074;-61
2023/10/22 10:01:15;;;;;;;0.82;0.82;;;13.90;99.90;;;;;;4408271;32;20475;-63
2023/10/22 10:03:43;;;;;;;0.57;0.57;;;13.90;99.90;;;;;;4408394;32;20199;-62
2023/10/22 10:06:09;;;;;;;0.40;0.40;;;13.90;99.90;;;;;;4394525;32;20109;-62
2023/10/22 10:08:37;;;;;;;0.30;0.30;;;14.00;99.90;;;;;;4382588;32;20532;-61
2023/10/22 10:11:06;;;;;;;0.50;0.50;;;14.00;99.90;;;;;;4406201;32;21824;-61
2023/10/22 10:13:32;;;;;;;0.37;0.37;;;14.10;99.90;;;;;;4399844;32;20533;-63
2023/10/22 10:15:59;;;;;;;0.40;0.40;;;14.10;99.90;;;;;;4407900;32;20405;-62
2023/10/22 10:19:01;;;;;;;0.40;0.40;;;14.10;99.90;;;;;;4388064;32;20424;-62
2023/10/22 10:21:45;;;;;;;0.32;0.32;;;14.10;99.90;;;;;;4407031;32;20073;-62
2023/10/22 10:24:24;;;;;;;0.30;0.30;;;14.20;99.90;;;;;;4404106;32;20093;-62
2023/10/22 10:26:52;;;;;;;0.30;0.30;;;14.20;99.90;;;;;;4401931;32;20145;-62
2023/10/22 10:29:21;;;;;;;0.40;0.40;;;14.30;99.90;;;;;;4410794;32;20201;-62
2023/10/22 10:31:48;;;;;;;0.40;0.40;;;14.40;99.90;;;;;;4408577;32;20501;-62
2023/10/22 10:34:34;;;;;;;0.40;0.40;;;14.40;99.90;;;;;;4395634;32;20489;-62
2023/10/22 10:37:20;;;;;;;0.40;0.40;;;14.50;99.90;;;;;;4398988;32;20337;-61
2023/10/22 10:39:47;;;;;;;0.40;0.40;;;14.60;99.90;;;;;;4391134;32;20082;-61
2023/10/22 10:42:14;;;;;;;0.30;0.30;;;14.70;99.90;;;;;;4410283;32;20061;-62
2023/10/22 10:45:01;;;;;;;0.35;0.35;;;14.80;99.90;;;;;;4396383;32;20065;-62
2023/10/22 10:47:31;;;;;;;0.30;0.30;;;14.90;99.90;;;;;;4404851;32;20078;-62
2023/10/22 10:50:03;;;;;;;0.50;0.50;;;15.10;99.90;;;;;;4407362;32;20817;-61
2023/10/22 10:52:31;;;;;;;0.30;0.30;;;15.10;99.90;;;;;;4407853;32;20110;-62
2023/10/22 10:55:00;;;;;;;0.40;0.40;;;15.20;99.90;;;;;;4407010;32;20101;-62
2023/10/22 10:57:44;;;;;;;0.40;0.40;;;15.30;99.90;;;;;;4396748;32;20078;-62
2023/10/22 11:02:40;;;;;;;0.20;0.20;;;15.50;99.90;;;;;;4407847;32;20490;-62
2023/10/22 11:05:06;;;;;;;;;;;15.50;99.90;;;;;;4390483;32;20110;-62
2023/10/22 11:07:32;;;;;;;0.45;0.45;;;15.50;99.90;;;;;;4402568;32;19974;-62
2023/10/22 11:09:57;;;;;;;0.40;0.40;;;15.60;99.90;;;;;;4404545;32;20077;-62
2023/10/22 11:12:24;;;;;;;0.32;0.32;;;15.70;99.90;;;;;;4406837;32;20077;-62
2023/10/22 11:14:55;;;;;;;0.57;0.57;;;15.90;99.90;;;;;;4406518;32;20086;-62
2023/10/22 11:17:21;;;;;;;0.30;0.30;;;15.90;99.90;;;;;;4396738;32;20137;-62
2023/10/22 11:19:50;;;;;;;0.40;0.40;;;16.00;99.90;;;;;;4405982;32;20508;-62
2023/10/22 11:22:15;;;;;;;0.40;0.40;;;16.00;99.90;;;;;;4408614;32;20090;-61
2023/10/22 11:24:42;;;;;;;0.30;0.30;;;16.00;99.90;;;;;;4408544;32;20057;-61
2023/10/22 11:27:08;;;;;;;0.40;0.40;;;16.00;99.90;;;;;;4402854;32;20581;-63
2023/10/22 11:29:43;;;;;;;0.28;0.28;;;16.20;99.90;;;;;;4406280;32;20082;-62
2023/10/22 11:32:12;;;;;;;0.30;0.30;;;16.70;99.90;;;;;;4388338;32;20093;-63
2023/10/22 11:34:47;;;;;;;1.40;0.62;;;17.20;99.90;;;;;;4405614;32;20097;-62
2023/10/22 11:37:13;;;;;;;0.30;0.30;;;17.80;99.90;;;;;;4396958;32;20205;-61
2023/10/22 11:39:41;;;;;;;0.30;0.30;;;18.10;99.90;;;;;;4402221;32;20097;-62
2023/10/22 11:42:07;;;;;;;0.30;0.30;;;18.50;99.90;;;;;;4409102;32;20073;-62
2023/10/22 11:44:34;;;;;;;14.60;1.15;;;18.60;99.90;;;;;;4408806;32;20077;-62
2023/10/22 11:47:02;;;;;;;0.40;0.40;;;18.90;99.90;;;;;;4387253;32;20081;-64
2023/10/22 11:49:29;;;;;;;0.20;0.20;;;19.10;99.90;;;;;;4402660;32;82854;-62
2023/10/22 11:51:54;;;;;;;0.50;0.50;;;19.30;99.90;;;;;;4392114;32;20053;-61
2023/10/22 11:54:37;;;;;;;0.20;0.20;;;19.40;99.90;;;;;;4405065;32;20443;-61
2023/10/22 11:57:03;;;;;;;0.22;0.22;;;19.50;99.90;;;;;;4400100;32;20492;-61
2023/10/22 11:59:29;;;;;;;0.20;0.20;;;19.40;99.90;;;;;;4400292;32;20090;-62
2023/10/22 12:01:55;;;;;;;0.10;0.10;;;19.60;99.90;;;;;;4390472;32;20531;-61
2023/10/22 12:04:20;;;;;;;0.20;0.20;;;19.90;99.90;;;;;;4408889;32;20525;-61
2023/10/22 12:06:46;;;;;;;0.17;0.17;;;20.40;99.90;;;;;;4404978;32;20081;-62
2023/10/22 12:09:11;;;;;;;0.10;0.10;;;20.70;99.90;;;;;;4403499;32;20069;-62
2023/10/22 12:11:37;;;;;;;0.50;0.50;;;20.90;99.90;;;;;;4402738;32;20101;-62
2023/10/22 12:14:02;;;;;;;0.55;0.47;;;21.10;99.90;;;;;;4405380;32;20928;-61
2023/10/22 12:16:28;;;;;;;0.28;0.20;;;21.30;99.90;;;;;;4400276;32;20198;-62
2023/10/22 12:18:53;;;;;;;0.15;0.15;;;21.30;99.90;;;;;;4401872;32;20088;-62
2023/10/22 12:21:19;;;;;;;0.10;0.10;;;21.20;99.90;;;;;;4407339;32;20066;-61
2023/10/22 12:23:44;;;;;;;2.12;0.82;;;21.20;99.90;;;;;;4404338;32;20079;-62
2023/10/22 12:26:10;;;;;;;0.20;0.20;;;21.30;99.90;;;;;;4404423;32;20605;-62
2023/10/22 12:28:35;;;;;;;0.13;0.13;;;21.30;99.90;;;;;;4406014;32;20094;-62
2023/10/22 12:31:01;;;;;;;0.10;0.10;;;21.70;99.90;;;;;;4404784;32;20093;-62
2023/10/22 12:33:26;;;;;;;4.80;0.95;;;21.90;99.90;;;;;;4404948;32;20439;-62
2023/10/22 12:35:52;;;;;;;0.10;0.10;;;21.70;99.90;;;;;;4405131;32;20085;-63
2023/10/22 12:38:17;;;;;;;0.10;0.10;;;21.70;99.90;;;;;;4394937;32;20588;-63
2023/10/22 12:40:48;;;;;;;1.77;0.20;;;21.50;99.90;;;;;;4404003;32;20069;-62
2023/10/22 12:43:13;;;;;;;0.20;0.20;;;21.10;99.90;;;;;;4407945;32;20066;-62
2023/10/22 12:45:40;;;;;;;0.20;0.20;;;20.30;99.90;;;;;;4406592;32;20097;-62
2023/10/22 12:48:05;;;;;;;0.17;0.17;;;19.50;99.90;;;;;;4404202;32;20073;-62